LTAJLTCC

Guest
Details From LTAJ - OGUZELI
To LTCC - DIYARBAKIR
Flight Number -
Tags generated
Created
Modified
Stats Distance 145 nm / 268 km
Max Altitude 17,300 ft / 5,273 m
Waypoints 4
Social Downloads 1
Likes 0
Share VATSIM

Download

Looking for another format? Having issues loading an existing format? Contact us
Advertisement - Login to hide

Notes

Basic altitude profile: - Ascent Rate: 2500ft/min - Ascent Speed: 250kts - Cruise Altitude: 35000ft - Cruise Speed: 420kts - Descent Rate: 1500ft/min - Descent Speed: 250kts Options: - Use NATs: yes - Use PACOTS: yes - Use low airways: yes - Use high airways: yes

Route

LTAJ NIZIP W74 SURUC LTCC

ID Type Via Altitude Latitude Longitude Leg Dist Tot Dist Heading (true) Name
O LTAJ APT - 0 ft / 0 m 36.94735˚ 37.47806˚ - 0 nm - OGUZELI
NIZIP FIX - 5,000 ft / 1,524 m 36.98472˚ 37.76667˚ 14 nm 14 nm 81° / 81° -
SURUC FIX W74 (AWY-LO) 17,300 ft / 5,273 m 37.06667˚ 38.54167˚ 37 nm 51 nm 82° / 83° -
O LTCC APT - 0 ft / 0 m 37.89390˚ 40.20102˚ 93 nm 144 nm 57° / 58° DIYARBAKIR

Altitude Profile

Advertisement - Login to hide

LTAJ

Details ICAO LTAJ (GZT)
Name OGUZELI
Region Turkey
Timezone Europe/Istanbul (UTC+3.0)
Stats Elevation 2,315 ft / 706 m (AMSL)
Location 36.947350° 37.478064°
Runways 2
Magnetic Variation 5.417° E

METAR

LTAJ 130720Z 02006KT CAVOK 12/01 Q1021 NOSIG

Decode

TAF

Not found

Departure Runways

ID Width Length Bearing (true) Bearing (mag) Surface Threshold Offset Overrun Length
10L 148 ft / 45 m 9,822 ft / 2,994 m 105.04° 99.62° Concrete 427 ft / 130 m 197 ft / 60 m
10R 100 ft / 30 m 9,821 ft / 2,994 m 105.04° 99.62° Concrete 328 ft / 100 m 197 ft / 60 m
28L 100 ft / 30 m 9,821 ft / 2,994 m 285.06° 279.64° Concrete 0 ft / 0 m 197 ft / 60 m
28R 148 ft / 45 m 9,822 ft / 2,994 m 285.06° 279.64° Concrete 0 ft / 0 m 623 ft / 190 m

LTCC

Details ICAO LTCC (DIY)
Name DIYARBAKIR
Region Turkey
Timezone Europe/Istanbul (UTC+3.0)
Stats Elevation 2,251 ft / 686 m (AMSL)
Location 37.893898° 40.201017°
Runways 1
Magnetic Variation 5.639° E

METAR

LTCC 130720Z 00000KT CAVOK 06/M01 Q1023 NOSIG

Decode

TAF

Not found

Destination Runways

ID Width Length Bearing (true) Bearing (mag) Surface Threshold Offset Overrun Length
16 148 ft / 45 m 11,663 ft / 3,555 m 162.66° 157.02° Concrete 0 ft / 0 m 507 ft / 155 m
34 148 ft / 45 m 11,663 ft / 3,555 m 342.67° 337.03° Concrete 0 ft / 0 m 495 ft / 151 m

Popular Alternatives